Time,TemperatureF,DewpointF,PressureIn,WindDirection,WindDirectionDegrees,WindSpeedMPH,WindSpeedGustMPH,Humidity,HourlyPrecipIn,Conditions,Clouds,dailyrainin,SoftwareType,DateUTC
2013-04-07 00:00:00,37.4,24.8,29.95,WNW,298,0.5,1.3,60,0.00,,,0.00,WUHU216HW,2013-04-07 04:00:00,
2013-04-07 00:01:00,37.4,24.8,29.95,NW,315,0.2,1.3,60,0.00,,,0.00,WUHU216HW,2013-04-07 04:01:00,
2013-04-07 00:06:00,37.6,25.4,29.95,North,0,0.0,1.3,61,0.00,,,0.00,WUHU216HW,2013-04-07 04:06:00,
2013-04-07 00:11:00,37.8,26.3,29.95,NE,45,1.2,1.7,63,0.00,,,0.00,WUHU216HW,2013-04-07 04:11:00,
2013-04-07 00:16:00,38.2,26.3,29.95,ESE,108,1.2,2.4,62,0.00,,,0.00,WUHU216HW,2013-04-07 04:16:00,
2013-04-07 00:22:00,39.2,26.5,29.95,SSE,158,2.6,4.1,60,0.00,,,0.00,WUHU216HW,2013-04-07 04:22:00,
2013-04-07 00:27:00,40.5,26.4,29.95,ENE,75,1.0,4.1,57,0.00,,,0.00,WUHU216HW,2013-04-07 04:27:00,
2013-04-07 00:32:00,41.4,26.8,29.95,ESE,123,1.9,3.3,56,0.00,,,0.00,WUHU216HW,2013-04-07 04:32:00,
2013-04-07 00:37:00,42.1,26.7,29.95,East,90,2.1,3.0,54,0.00,,,0.00,WUHU216HW,2013-04-07 04:37:00,
2013-04-07 00:42:00,42.5,26.6,29.95,West,270,1.2,3.0,53,0.00,,,0.00,WUHU216HW,2013-04-07 04:42:00,
2013-04-07 00:47:00,42.8,26.8,29.95,South,175,1.1,3.0,53,0.00,,,0.00,WUHU216HW,2013-04-07 04:47:00,
2013-04-07 00:52:00,42.8,26.5,29.95,SE,135,1.7,2.7,52,0.00,,,0.00,WUHU216HW,2013-04-07 04:52:00,
2013-04-07 00:57:00,43.2,26.7,29.94,SE,145,1.5,2.4,52,0.00,,,0.00,WUHU216HW,2013-04-07 04:57:00,
2013-04-07 01:02:00,43.4,26.5,29.94,SSE,158,1.4,2.4,51,0.00,,,0.00,WUHU216HW,2013-04-07 05:02:00,
2013-04-07 01:07:00,43.6,26.6,29.94,South,180,0.1,3.0,51,0.00,,,0.00,WUHU216HW,2013-04-07 05:07:00,
2013-04-07 01:12:00,43.7,26.8,29.94,SE,128,1.4,3.0,51,0.00,,,0.00,WUHU216HW,2013-04-07 05:12:00,
2013-04-07 01:17:00,43.9,27.0,29.94,SE,134,1.9,2.7,51,0.00,,,0.00,WUHU216HW,2013-04-07 05:17:00,
2013-04-07 01:22:00,44.1,26.7,29.94,SSE,158,3.3,4.1,50,0.00,,,0.00,WUHU216HW,2013-04-07 05:22:00,
2013-04-07 01:27:00,44.3,26.8,29.94,SE,135,1.2,4.1,50,0.00,,,0.00,WUHU216HW,2013-04-07 05:27:00,
2013-04-07 01:32:00,44.3,26.8,29.94,SE,135,0.3,3.8,50,0.00,,,0.00,WUHU216HW,2013-04-07 05:32:00,
2013-04-07 01:37:00,44.3,26.8,29.93,SE,135,1.7,2.7,50,0.00,,,0.00,WUHU216HW,2013-04-07 05:37:00,
2013-04-07 01:41:00,44.5,27.0,29.93,ESE,121,1.0,2.7,50,0.00,,,0.00,WUHU216HW,2013-04-07 05:41:00,
2013-04-07 01:46:00,44.5,27.0,29.93,SSE,158,1.7,2.7,50,0.00,,,0.00,WUHU216HW,2013-04-07 05:46:00,
2013-04-07 01:52:00,44.6,27.2,29.93,SE,135,0.9,2.7,50,0.00,,,0.00,WUHU216HW,2013-04-07 05:52:00,
2013-04-07 01:57:00,44.6,27.2,29.93,East,90,0.3,2.4,50,0.00,,,0.00,WUHU216HW,2013-04-07 05:57:00,
2013-04-07 02:02:00,44.6,27.2,29.93,East,90,0.5,1.7,50,0.00,,,0.00,WUHU216HW,2013-04-07 06:02:00,
2013-04-07 02:07:00,44.6,27.2,29.93,WSW,248,0.5,1.7,50,0.00,,,0.00,WUHU216HW,2013-04-07 06:07:00,
2013-04-07 02:12:00,44.6,27.2,29.93,SSE,153,1.4,2.4,50,0.00,,,0.00,WUHU216HW,2013-04-07 06:12:00,
2013-04-07 02:17:00,44.8,27.8,29.92,East,90,0.0,2.4,51,0.00,,,0.00,WUHU216HW,2013-04-07 06:17:00,
2013-04-07 02:22:00,45.0,28.0,29.92,SSE,158,1.2,1.9,51,0.00,,,0.00,WUHU216HW,2013-04-07 06:22:00,
2013-04-07 02:27:00,45.0,28.0,29.92,South,180,2.3,2.7,51,0.00,,,0.00,WUHU216HW,2013-04-07 06:27:00,
2013-04-07 02:32:00,45.2,28.1,29.92,SE,138,1.8,3.3,51,0.00,,,0.00,WUHU216HW,2013-04-07 06:32:00,
2013-04-07 02:37:00,45.2,28.1,29.92,ESE,113,5.2,6.0,51,0.00,,,0.00,WUHU216HW,2013-04-07 06:37:00,
2013-04-07 02:42:00,45.2,28.1,29.92,ENE,68,2.1,6.0,51,0.00,,,0.00,WUHU216HW,2013-04-07 06:42:00,
2013-04-07 02:47:00,45.2,28.1,29.92,ESE,113,1.4,4.6,51,0.00,,,0.00,WUHU216HW,2013-04-07 06:47:00,
2013-04-07 02:52:00,45.2,28.1,29.92,East,90,1.2,4.6,51,0.00,,,0.00,WUHU216HW,2013-04-07 06:52:00,
2013-04-07 02:57:00,45.2,28.1,29.91,ESE,110,1.3,3.3,51,0.00,,,0.00,WUHU216HW,2013-04-07 06:57:00,
2013-04-07 03:02:00,45.2,28.1,29.92,SE,132,1.5,5.1,51,0.00,,,0.00,WUHU216HW,2013-04-07 07:02:00,
2013-04-07 03:07:00,45.0,28.5,29.92,SE,145,2.3,5.1,52,0.00,,,0.00,WUHU216HW,2013-04-07 07:07:00,
2013-04-07 03:12:00,45.0,28.0,29.91,ESE,122,2.7,4.6,51,0.00,,,0.00,WUHU216HW,2013-04-07 07:12:00,
2013-04-07 03:17:00,45.0,28.5,29.91,SE,126,1.9,4.6,52,0.00,,,0.00,WUHU216HW,2013-04-07 07:17:00,
2013-04-07 03:22:00,45.0,28.5,29.91,SE,135,2.3,4.1,52,0.00,,,0.00,WUHU216HW,2013-04-07 07:22:00,
2013-04-07 03:27:00,45.0,28.5,29.91,SSE,147,1.7,3.8,52,0.00,,,0.00,WUHU216HW,2013-04-07 07:27:00,
2013-04-07 03:32:00,45.0,28.5,29.91,SSE,158,2.3,3.3,52,0.00,,,0.00,WUHU216HW,2013-04-07 07:32:00,
2013-04-07 03:37:00,45.0,28.5,29.91,WSW,248,2.3,4.1,52,0.00,,,0.00,WUHU216HW,2013-04-07 07:37:00,
2013-04-07 03:42:00,45.0,28.5,29.91,ESE,119,2.2,4.4,52,0.00,,,0.00,WUHU216HW,2013-04-07 07:42:00,
2013-04-07 03:47:00,45.0,28.5,29.91,East,90,0.5,4.4,52,0.00,,,0.00,WUHU216HW,2013-04-07 07:47:00,
2013-04-07 03:52:00,45.0,28.5,29.91,SE,135,0.8,2.7,52,0.00,,,0.00,WUHU216HW,2013-04-07 07:52:00,
2013-04-07 03:57:00,44.8,28.3,29.91,South,180,1.2,1.7,52,0.00,,,0.00,WUHU216HW,2013-04-07 07:57:00,
2013-04-07 04:02:00,44.8,28.3,29.91,NNE,23,0.3,1.7,52,0.00,,,0.00,WUHU216HW,2013-04-07 08:02:00,
2013-04-07 04:07:00,44.6,28.1,29.91,SE,136,1.1,2.4,52,0.00,,,0.00,WUHU216HW,2013-04-07 08:07:00,
2013-04-07 04:12:00,44.6,28.1,29.91,SSE,158,2.3,2.7,52,0.00,,,0.00,WUHU216HW,2013-04-07 08:12:00,
2013-04-07 04:17:00,44.6,28.1,29.91,ESE,104,1.1,2.7,52,0.00,,,0.00,WUHU216HW,2013-04-07 08:17:00,
2013-04-07 04:22:00,44.6,28.1,29.91,ESE,113,1.2,2.7,52,0.00,,,0.00,WUHU216HW,2013-04-07 08:22:00,
2013-04-07 04:27:00,44.5,27.9,29.90,ESE,113,0.5,1.7,52,0.00,,,0.00,WUHU216HW,2013-04-07 08:27:00,
2013-04-07 04:32:00,44.5,27.9,29.90,ESE,122,0.2,1.3,52,0.00,,,0.00,WUHU216HW,2013-04-07 08:32:00,
2013-04-07 04:37:00,44.3,28.2,29.90,SSE,158,1.4,1.7,53,0.00,,,0.00,WUHU216HW,2013-04-07 08:37:00,
2013-04-07 04:42:00,44.3,28.2,29.90,ESE,113,1.2,1.7,53,0.00,,,0.00,WUHU216HW,2013-04-07 08:42:00,
2013-04-07 04:47:00,44.3,28.2,29.90,SE,135,0.5,2.4,53,0.00,,,0.00,WUHU216HW,2013-04-07 08:47:00,
2013-04-07 04:52:00,44.1,28.0,29.90,East,90,0.5,2.4,53,0.00,,,0.00,WUHU216HW,2013-04-07 08:52:00,
2013-04-07 04:57:00,44.1,28.0,29.90,ESE,103,0.3,1.3,53,0.00,,,0.00,WUHU216HW,2013-04-07 08:57:00,
2013-04-07 05:02:00,43.9,27.9,29.90,South,180,0.5,1.0,53,0.00,,,0.00,WUHU216HW,2013-04-07 09:02:00,
2013-04-07 05:07:00,43.7,27.7,29.90,NNW,338,0.1,1.0,53,0.00,,,0.00,WUHU216HW,2013-04-07 09:07:00,
2013-04-07 05:12:00,43.6,27.6,29.90,East,88,0.4,0.6,53,0.00,,,0.00,WUHU216HW,2013-04-07 09:12:00,
2013-04-07 05:17:00,43.6,28.0,29.90,SE,135,0.3,1.0,54,0.00,,,0.00,WUHU216HW,2013-04-07 09:17:00,
2013-04-07 05:22:00,43.4,27.8,29.90,SE,126,1.0,1.7,54,0.00,,,0.00,WUHU216HW,2013-04-07 09:22:00,
2013-04-07 05:27:00,43.2,27.6,29.90,SE,135,0.3,1.7,54,0.00,,,0.00,WUHU216HW,2013-04-07 09:27:00,
2013-04-07 05:32:00,43.2,27.6,29.90,East,90,0.0,1.7,54,0.00,,,0.00,WUHU216HW,2013-04-07 09:32:00,
2013-04-07 05:37:00,43.0,27.5,29.90,SE,135,0.5,1.0,54,0.00,,,0.00,WUHU216HW,2013-04-07 09:37:00,
2013-04-07 05:42:00,42.8,27.7,29.90,SE,135,0.0,1.0,55,0.00,,,0.00,WUHU216HW,2013-04-07 09:42:00,
2013-04-07 05:48:00,42.7,27.5,29.90,West,270,0.0,0.3,55,0.00,,,0.00,WUHU216HW,2013-04-07 09:48:00,
2013-04-07 05:53:00,42.3,27.6,29.90,West,270,0.0,1.3,56,0.00,,,0.00,WUHU216HW,2013-04-07 09:53:00,
2013-04-07 05:58:00,41.6,27.0,29.90,WNW,283,1.0,1.7,56,0.00,,,0.00,WUHU216HW,2013-04-07 09:58:00,
2013-04-07 06:03:00,40.7,26.6,29.90,West,281,0.8,1.7,57,0.00,,,0.00,WUHU216HW,2013-04-07 10:03:00,
2013-04-07 06:08:00,39.6,25.5,29.90,NW,315,0.3,1.7,57,0.00,,,0.00,WUHU216HW,2013-04-07 10:08:00,
2013-04-07 06:13:00,39.1,25.8,29.90,West,270,0.5,1.7,59,0.00,,,0.00,WUHU216HW,2013-04-07 10:13:00,
2013-04-07 06:18:00,38.5,25.4,29.90,WNW,293,0.0,1.0,59,0.00,,,0.00,WUHU216HW,2013-04-07 10:18:00,
2013-04-07 06:23:00,37.8,25.2,29.90,NW,315,0.3,1.0,60,0.00,,,0.00,WUHU216HW,2013-04-07 10:23:00,
2013-04-07 06:28:00,37.6,25.0,29.90,NW,315,0.0,0.6,60,0.00,,,0.00,WUHU216HW,2013-04-07 10:28:00,
2013-04-07 06:33:00,37.1,24.9,29.90,WNW,286,0.6,1.3,61,0.00,,,0.00,WUHU216HW,2013-04-07 10:33:00,
2013-04-07 06:38:00,36.7,24.6,29.90,WNW,293,0.0,1.3,61,0.00,,,0.00,WUHU216HW,2013-04-07 10:38:00,
2013-04-07 06:43:00,36.4,24.6,29.90,West,270,0.3,1.0,62,0.00,,,0.00,WUHU216HW,2013-04-07 10:43:00,
2013-04-07 06:48:00,36.0,24.3,29.90,West,270,0.0,1.0,62,0.00,,,0.00,WUHU216HW,2013-04-07 10:48:00,
2013-04-07 06:53:00,35.5,24.1,29.90,West,270,0.0,0.0,63,0.00,,,0.00,WUHU216HW,2013-04-07 10:53:00,
2013-04-07 06:58:00,35.3,23.9,29.90,West,270,0.0,0.0,63,0.00,,,0.00,WUHU216HW,2013-04-07 10:58:00,
2013-04-07 07:03:00,35.1,24.1,29.90,West,270,0.0,0.0,64,0.00,,,0.00,WUHU216HW,2013-04-07 11:03:00,
2013-04-07 07:08:00,34.9,23.9,29.90,West,270,0.0,0.0,64,0.00,,,0.00,WUHU216HW,2013-04-07 11:08:00,
2013-04-07 07:13:00,34.9,24.3,29.90,West,270,0.0,0.6,65,0.00,,,0.00,WUHU216HW,2013-04-07 11:13:00,
2013-04-07 07:18:00,34.9,24.3,29.90,West,270,0.0,0.6,65,0.00,,,0.00,WUHU216HW,2013-04-07 11:18:00,
2013-04-07 07:23:00,34.9,24.7,29.90,West,270,0.0,0.0,66,0.00,,,0.00,WUHU216HW,2013-04-07 11:23:00,
2013-04-07 07:28:00,34.9,24.7,29.90,West,270,0.0,0.0,66,0.00,,,0.00,WUHU216HW,2013-04-07 11:28:00,
2013-04-07 07:33:00,34.9,25.0,29.90,WNW,293,0.0,0.0,67,0.00,,,0.00,WUHU216HW,2013-04-07 11:33:00,
2013-04-07 07:38:00,35.1,25.2,29.90,WNW,293,0.0,0.0,67,0.00,,,0.00,WUHU216HW,2013-04-07 11:38:00,
2013-04-07 07:43:00,35.3,25.4,29.90,WNW,293,0.0,0.0,67,0.00,,,0.00,WUHU216HW,2013-04-07 11:43:00,
2013-04-07 07:48:00,35.6,26.1,29.90,WSW,248,1.2,1.3,68,0.00,,,0.00,WUHU216HW,2013-04-07 11:48:00,
2013-04-07 07:53:00,35.8,26.3,29.90,WNW,293,0.1,1.3,68,0.00,,,0.00,WUHU216HW,2013-04-07 11:53:00,
2013-04-07 07:58:00,36.2,26.3,29.90,WNW,293,0.0,0.6,67,0.00,,,0.00,WUHU216HW,2013-04-07 11:58:00,
2013-04-07 08:03:00,36.5,26.7,29.90,WNW,293,0.0,0.0,67,0.00,,,0.00,WUHU216HW,2013-04-07 12:03:00,
2013-04-07 08:08:00,37.1,27.9,29.90,West,270,0.0,0.6,69,0.00,,,0.00,WUHU216HW,2013-04-07 12:08:00,
2013-04-07 08:13:00,37.8,28.5,29.90,SSW,203,0.0,0.6,69,0.00,,,0.00,WUHU216HW,2013-04-07 12:13:00,
2013-04-07 08:18:00,38.5,29.3,29.90,SW,218,0.2,1.3,69,0.00,,,0.00,WUHU216HW,2013-04-07 12:18:00,
2013-04-07 08:23:00,39.4,29.7,29.89,South,180,0.9,1.3,68,0.00,,,0.00,WUHU216HW,2013-04-07 12:23:00,
2013-04-07 08:28:00,40.1,30.0,29.89,SE,135,1.4,2.7,67,0.00,,,0.00,WUHU216HW,2013-04-07 12:28:00,
2013-04-07 08:33:00,41.2,31.1,29.89,SE,143,1.8,3.3,67,0.00,,,0.00,WUHU216HW,2013-04-07 12:33:00,
2013-04-07 08:38:00,42.1,32.0,29.88,ESE,113,1.4,3.8,67,0.00,,,0.00,WUHU216HW,2013-04-07 12:38:00,
2013-04-07 08:43:00,43.0,32.1,29.89,West,270,3.3,3.8,65,0.00,,,0.00,WUHU216HW,2013-04-07 12:43:00,
2013-04-07 08:48:00,44.1,32.3,29.88,South,170,2.1,6.0,63,0.00,,,0.00,WUHU216HW,2013-04-07 12:48:00,
2013-04-07 08:53:00,44.6,32.4,29.88,SSE,156,3.2,6.0,62,0.00,,,0.00,WUHU216HW,2013-04-07 12:53:00,
2013-04-07 08:58:00,45.0,32.4,29.88,SE,140,2.5,5.7,61,0.00,,,0.00,WUHU216HW,2013-04-07 12:58:00,
2013-04-07 09:03:00,45.4,32.7,29.88,ESE,113,2.3,7.0,61,0.00,,,0.00,WUHU216HW,2013-04-07 13:03:00,
2013-04-07 09:08:00,45.7,33.0,29.87,SE,134,2.2,7.0,61,0.00,,,0.00,WUHU216HW,2013-04-07 13:08:00,
2013-04-07 09:13:00,46.1,32.9,29.87,SE,133,2.0,3.8,60,0.00,,,0.00,WUHU216HW,2013-04-07 13:13:00,
2013-04-07 09:18:00,46.8,33.7,29.87,East,90,2.1,3.8,60,0.00,,,0.00,WUHU216HW,2013-04-07 13:18:00,
2013-04-07 09:23:00,47.3,34.2,29.87,East,90,2.9,5.1,60,0.00,,,0.00,WUHU216HW,2013-04-07 13:23:00,
2013-04-07 09:28:00,48.2,35.1,29.87,SE,135,4.4,5.4,60,0.00,,,0.00,WUHU216HW,2013-04-07 13:28:00,
2013-04-07 09:33:00,49.0,34.8,29.87,South,179,4.0,8.1,58,0.00,,,0.00,WUHU216HW,2013-04-07 13:33:00,
2013-04-07 09:38:00,49.5,34.8,29.86,SW,225,4.4,8.1,57,0.00,,,0.00,WUHU216HW,2013-04-07 13:38:00,
2013-04-07 09:44:00,50.0,34.9,29.86,ESE,113,4.4,6.8,56,0.00,,,0.00,WUHU216HW,2013-04-07 13:44:00,
2013-04-07 09:49:00,50.6,35.4,29.86,SE,135,4.0,6.8,56,0.00,,,0.00,WUHU216HW,2013-04-07 13:49:00,
2013-04-07 09:54:00,50.9,34.8,29.86,South,186,4.5,10.4,54,0.00,,,0.00,WUHU216HW,2013-04-07 13:54:00,
2013-04-07 09:59:00,51.3,35.7,29.86,SSE,155,3.2,10.4,55,0.00,,,0.00,WUHU216HW,2013-04-07 13:59:00,
2013-04-07 10:04:00,51.7,35.5,29.85,SSE,158,4.4,9.5,54,0.00,,,0.00,WUHU216HW,2013-04-07 14:04:00,
2013-04-07 10:09:00,52.2,36.0,29.85,SE,143,3.3,9.5,54,0.00,,,0.00,WUHU216HW,2013-04-07 14:09:00,
2013-04-07 10:14:00,52.7,36.0,29.85,South,170,5.4,8.1,53,0.00,,,0.00,WUHU216HW,2013-04-07 14:14:00,
2013-04-07 10:19:00,53.1,36.4,29.85,SE,135,4.9,8.1,53,0.00,,,0.00,WUHU216HW,2013-04-07 14:19:00,
2013-04-07 10:24:00,53.3,36.1,29.85,ESE,113,8.2,9.5,52,0.00,,,0.00,WUHU216HW,2013-04-07 14:24:00,
2013-04-07 10:29:00,53.5,36.3,29.85,East,90,3.5,9.5,52,0.00,,,0.00,WUHU216HW,2013-04-07 14:29:00,
2013-04-07 10:34:00,53.8,36.1,29.85,South,180,4.7,8.7,51,0.00,,,0.00,WUHU216HW,2013-04-07 14:34:00,
2013-04-07 10:39:00,54.7,36.9,29.84,SSE,156,3.8,8.7,51,0.00,,,0.00,WUHU216HW,2013-04-07 14:39:00,
2013-04-07 10:45:00,55.1,37.3,29.84,SSE,168,3.4,7.0,51,0.00,,,0.00,WUHU216HW,2013-04-07 14:45:00,
2013-04-07 10:50:00,55.1,37.3,29.84,South,180,4.0,7.0,51,0.00,,,0.00,WUHU216HW,2013-04-07 14:50:00,
2013-04-07 10:55:00,55.3,37.4,29.83,ESE,116,2.3,6.0,51,0.00,,,0.00,WUHU216HW,2013-04-07 14:55:00,
2013-04-07 11:00:00,55.8,37.9,29.83,SSE,162,4.4,6.0,51,0.00,,,0.00,WUHU216HW,2013-04-07 15:00:00,
2013-04-07 11:05:00,56.2,37.8,29.82,SSE,154,2.8,7.0,50,0.00,,,0.00,WUHU216HW,2013-04-07 15:05:00,
2013-04-07 11:10:00,56.3,38.4,29.82,ESE,113,3.3,7.0,51,0.00,,,0.00,WUHU216HW,2013-04-07 15:10:00,
2013-04-07 11:15:00,57.2,39.3,29.82,SE,135,3.3,5.7,51,0.00,,,0.00,WUHU216HW,2013-04-07 15:15:00,
2013-04-07 11:20:00,58.0,39.0,29.82,SE,126,4.6,7.0,49,0.00,,,0.00,WUHU216HW,2013-04-07 15:20:00,
2013-04-07 11:25:00,58.3,39.9,29.82,SSW,203,4.0,7.0,50,0.00,,,0.00,WUHU216HW,2013-04-07 15:25:00,
2013-04-07 11:30:00,59.0,40.0,29.82,SSE,157,3.2,9.5,49,0.00,,,0.00,WUHU216HW,2013-04-07 15:30:00,
2013-04-07 11:35:00,59.4,39.7,29.82,SE,135,2.9,9.5,48,0.00,,,0.00,WUHU216HW,2013-04-07 15:35:00,
2013-04-07 11:40:00,59.4,39.1,29.81,ESE,104,2.6,6.8,47,0.00,,,0.00,WUHU216HW,2013-04-07 15:40:00,
2013-04-07 11:45:00,59.2,39.0,29.81,South,181,4.7,8.4,47,0.00,,,0.00,WUHU216HW,2013-04-07 15:45:00,
2013-04-07 11:50:00,59.4,39.7,29.81,SE,143,3.7,8.4,48,0.00,,,0.00,WUHU216HW,2013-04-07 15:50:00,
2013-04-07 11:55:00,59.9,40.1,29.81,SSE,162,4.0,7.0,48,0.00,,,0.00,WUHU216HW,2013-04-07 15:55:00,
2013-04-07 12:00:00,61.0,40.0,29.81,South,190,5.0,10.4,46,0.00,,,0.00,WUHU216HW,2013-04-07 16:00:00,
2013-04-07 12:02:00,61.2,40.1,29.81,SSW,203,5.2,6.0,46,0.00,,,0.00,WUHU216HW,2013-04-07 16:02:00,
2013-04-07 12:05:00,61.2,40.1,29.81,SSW,203,5.2,10.4,46,0.00,,,0.00,WUHU216HW,2013-04-07 16:05:00,
2013-04-07 12:10:00,61.2,40.1,29.81,SSW,203,5.2,8.1,46,0.00,,,0.00,WUHU216HW,2013-04-07 16:10:00,
2013-04-07 12:32:00,63.4,41.0,29.79,South,180,6.1,7.0,44,0.00,,,0.00,WUHU216HW,2013-04-07 16:32:00,
2013-04-07 12:37:00,63.4,41.0,29.79,SW,225,5.8,7.0,44,0.00,,,0.00,WUHU216HW,2013-04-07 16:37:00,
2013-04-07 12:42:00,63.4,41.0,29.79,SW,225,5.8,7.0,44,0.00,,,0.00,WUHU216HW,2013-04-07 16:42:00,
2013-04-07 13:00:00,63.7,41.2,29.77,SSE,158,2.3,2.7,44,0.00,,,0.00,WUHU216HW,2013-04-07 17:00:00,
2013-04-07 13:05:00,63.9,41.4,29.78,SSE,158,3.8,4.4,44,0.00,,,0.00,WUHU216HW,2013-04-07 17:05:00,
2013-04-07 13:30:00,63.4,41.0,29.77,South,180,3.8,4.4,44,0.00,,,0.00,WUHU216HW,2013-04-07 17:30:00,
2013-04-07 13:35:00,63.4,41.0,29.77,South,180,2.6,4.4,44,0.00,,,0.00,WUHU216HW,2013-04-07 17:35:00,
2013-04-07 13:40:00,63.4,41.0,29.77,South,180,2.6,4.4,44,0.00,,,0.00,WUHU216HW,2013-04-07 17:40:00,
2013-04-07 14:00:00,64.6,42.0,29.75,ENE,68,0.5,0.6,44,0.00,,,0.00,WUHU216HW,2013-04-07 18:00:00,
2013-04-07 14:05:00,64.6,42.0,29.75,West,270,2.9,3.3,44,0.00,,,0.00,WUHU216HW,2013-04-07 18:05:00,
2013-04-07 14:10:00,64.6,42.0,29.75,West,270,2.9,3.3,44,0.00,,,0.00,WUHU216HW,2013-04-07 18:10:00,
2013-04-07 14:30:00,66.1,41.7,29.74,South,180,1.7,1.9,41,0.00,,,0.00,WUHU216HW,2013-04-07 18:30:00,
2013-04-07 14:35:00,66.1,42.2,29.74,ESE,113,4.4,5.1,42,0.00,,,0.00,WUHU216HW,2013-04-07 18:35:00,
2013-04-07 14:40:00,66.1,42.2,29.74,ESE,113,4.4,5.1,42,0.00,,,0.00,WUHU216HW,2013-04-07 18:40:00,
2013-04-07 15:00:00,66.8,42.3,29.73,SW,225,1.7,1.9,41,0.00,,,0.00,WUHU216HW,2013-04-07 19:00:00,
2013-04-07 15:05:00,66.8,42.3,29.73,South,180,4.7,5.4,41,0.00,,,0.00,WUHU216HW,2013-04-07 19:05:00,
2013-04-07 15:10:00,66.8,42.3,29.73,South,180,4.7,5.4,41,0.00,,,0.00,WUHU216HW,2013-04-07 19:10:00,
2013-04-07 15:30:00,67.9,42.7,29.71,SW,225,2.6,3.0,40,0.00,,,0.00,WUHU216HW,2013-04-07 19:30:00,
2013-04-07 15:35:00,67.9,42.7,29.71,South,180,3.5,4.1,40,0.00,,,0.00,WUHU216HW,2013-04-07 19:35:00,
2013-04-07 15:40:00,67.9,42.7,29.71,South,180,3.5,4.1,40,0.00,,,0.00,WUHU216HW,2013-04-07 19:40:00,
2013-04-07 16:00:00,70.9,43.2,29.70,SE,135,3.3,3.8,37,0.00,,,0.00,WUHU216HW,2013-04-07 20:00:00,
2013-04-07 16:05:00,70.9,43.2,29.70,NNW,338,3.5,4.1,37,0.00,,,0.00,WUHU216HW,2013-04-07 20:05:00,
2013-04-07 16:30:00,72.0,44.2,29.69,SE,135,4.4,5.1,37,0.00,,,0.00,WUHU216HW,2013-04-07 20:30:00,
2013-04-07 16:35:00,72.0,44.2,29.69,SSE,158,3.5,5.1,37,0.00,,,0.00,WUHU216HW,2013-04-07 20:35:00,
2013-04-07 16:40:00,72.0,44.2,29.69,SSE,158,3.5,4.1,37,0.00,,,0.00,WUHU216HW,2013-04-07 20:40:00,
2013-04-07 17:00:00,73.1,42.8,29.69,SSE,158,3.3,3.8,34,0.00,,,0.00,WUHU216HW,2013-04-07 21:00:00,
2013-04-07 17:05:00,73.1,43.7,29.69,SSE,158,2.1,3.8,35,0.00,,,0.00,WUHU216HW,2013-04-07 21:05:00,
2013-04-07 17:10:00,73.1,43.7,29.69,SSE,158,2.1,3.8,35,0.00,,,0.00,WUHU216HW,2013-04-07 21:10:00,
2013-04-07 17:30:00,72.7,42.6,29.69,SE,135,3.3,3.8,34,0.00,,,0.00,WUHU216HW,2013-04-07 21:30:00,
2013-04-07 17:35:00,72.7,43.3,29.69,SE,135,3.3,3.8,35,0.00,,,0.00,WUHU216HW,2013-04-07 21:35:00,
2013-04-07 17:40:00,72.7,43.3,29.69,SE,135,3.3,3.8,35,0.00,,,0.00,WUHU216HW,2013-04-07 21:40:00,
2013-04-07 18:00:00,72.4,42.3,29.69,SSW,203,3.8,4.4,34,0.00,,,0.00,WUHU216HW,2013-04-07 22:00:00,
2013-04-07 18:05:00,72.4,43.0,29.69,SE,135,4.4,5.1,35,0.00,,,0.00,WUHU216HW,2013-04-07 22:05:00,
2013-04-07 18:30:00,69.3,42.5,29.69,SSE,158,1.2,1.3,38,0.00,,,0.00,WUHU216HW,2013-04-07 22:30:00,
2013-04-07 18:35:00,69.3,42.5,29.69,SSE,158,1.4,1.7,38,0.00,,,0.00,WUHU216HW,2013-04-07 22:35:00,
2013-04-07 18:40:00,69.3,42.5,29.69,SSE,158,1.4,1.7,38,0.00,,,0.00,WUHU216HW,2013-04-07 22:40:00,
2013-04-07 19:00:00,68.6,42.6,29.69,ESE,113,0.9,1.0,39,0.00,,,0.00,WUHU216HW,2013-04-07 23:00:00,
2013-04-07 19:05:00,68.6,42.6,29.69,SSE,158,1.4,1.7,39,0.00,,,0.00,WUHU216HW,2013-04-07 23:05:00,
2013-04-07 19:10:00,68.6,42.6,29.69,SSE,158,1.4,1.7,39,0.00,,,0.00,WUHU216HW,2013-04-07 23:10:00,
2013-04-07 19:30:00,66.8,41.7,29.70,WSW,248,0.0,0.0,40,0.00,,,0.00,WUHU216HW,2013-04-07 23:30:00,
2013-04-07 19:35:00,66.8,41.7,29.70,WSW,248,0.3,0.3,40,0.00,,,0.00,WUHU216HW,2013-04-07 23:35:00,
2013-04-07 19:40:00,66.8,41.7,29.70,WSW,248,0.3,0.3,40,0.00,,,0.00,WUHU216HW,2013-04-07 23:40:00,
2013-04-07 20:00:00,65.5,41.8,29.69,SSE,158,1.4,1.7,42,0.00,,,0.00,WUHU216HW,2013-04-08 00:00:00,
2013-04-07 20:05:00,65.5,41.8,29.69,SSE,158,1.4,1.7,42,0.00,,,0.00,WUHU216HW,2013-04-08 00:05:00,
2013-04-07 20:10:00,65.5,41.8,29.69,SSE,158,1.4,1.7,42,0.00,,,0.00,WUHU216HW,2013-04-08 00:10:00,
2013-04-07 20:30:00,63.7,41.2,29.71,West,270,0.0,0.0,44,0.00,,,0.00,WUHU216HW,2013-04-08 00:30:00,
2013-04-07 20:35:00,63.7,41.2,29.71,West,270,0.0,0.0,44,0.00,,,0.00,WUHU216HW,2013-04-08 00:35:00,
2013-04-07 20:40:00,63.7,41.2,29.71,West,270,0.0,0.0,44,0.00,,,0.00,WUHU216HW,2013-04-08 00:40:00,
2013-04-07 21:00:00,62.1,41.5,29.72,NNE,23,0.0,0.0,47,0.00,,,0.00,WUHU216HW,2013-04-08 01:00:00,
2013-04-07 21:05:00,62.1,41.5,29.72,NNE,23,0.0,0.0,47,0.00,,,0.00,WUHU216HW,2013-04-08 01:05:00,
2013-04-07 21:30:00,61.4,42.0,29.73,SE,135,0.0,0.0,49,0.00,,,0.00,WUHU216HW,2013-04-08 01:30:00,
2013-04-07 21:35:00,61.4,42.0,29.73,SE,135,0.0,0.0,49,0.00,,,0.00,WUHU216HW,2013-04-08 01:35:00,
2013-04-07 21:40:00,61.4,42.0,29.73,SE,135,0.0,0.0,49,0.00,,,0.00,WUHU216HW,2013-04-08 01:40:00,
2013-04-07 22:00:00,61.6,42.8,29.74,West,270,0.0,0.0,50,0.00,,,0.00,WUHU216HW,2013-04-08 02:00:00,
2013-04-07 22:05:00,61.6,42.2,29.74,West,270,0.0,0.0,49,0.00,,,0.00,WUHU216HW,2013-04-08 02:05:00,
2013-04-07 22:10:00,61.6,42.2,29.74,West,270,0.0,0.0,49,0.00,,,0.00,WUHU216HW,2013-04-08 02:10:00,
2013-04-07 22:30:00,61.2,43.4,29.74,North,0,1.4,1.7,52,0.00,,,0.00,WUHU216HW,2013-04-08 02:30:00,
2013-04-07 22:35:00,61.2,43.9,29.74,North,0,2.6,3.0,53,0.00,,,0.00,WUHU216HW,2013-04-08 02:35:00,
2013-04-07 23:00:00,60.1,42.9,29.74,SSW,203,0.0,0.0,53,0.00,,,0.00,WUHU216HW,2013-04-08 03:00:00,
2013-04-07 23:05:00,60.1,42.9,29.74,West,270,0.0,0.0,53,0.00,,,0.00,WUHU216HW,2013-04-08 03:05:00,
2013-04-07 23:30:00,58.1,41.6,29.74,NNW,338,0.0,0.0,54,0.00,,,0.00,WUHU216HW,2013-04-08 03:30:00,
2013-04-07 23:35:00,57.8,41.2,29.74,NNW,338,0.4,1.0,54,0.00,,,0.00,WUHU216HW,2013-04-08 03:35:00,
2013-04-07 23:40:00,57.4,41.0,29.74,NNW,338,0.0,1.0,54,0.00,,,0.00,WUHU216HW,2013-04-08 03:40:00,
2013-04-07 23:45:00,57.1,41.0,29.74,WNW,293,0.0,1.7,55,0.00,,,0.00,WUHU216HW,2013-04-08 03:45:00,
2013-04-07 23:50:00,56.5,41.0,29.74,North,0,0.0,1.7,56,0.00,,,0.00,WUHU216HW,2013-04-08 03:50:00,
2013-04-07 23:55:00,56.3,41.2,29.74,North,0,0.0,0.6,57,0.00,,,0.00,WUHU216HW,2013-04-08 03:55:00,